In Rescue
 
Open Full Screen Window  High Contrast Mode
Wind Gusting 15 knots
11
October 25, 2021 4:49 PM EDT
Weather Information
Wind Direction
  020 °
Wind Speed
  11 kt (13 mph)
Wind Gust
  15 kt (17 mph)
Variable Wind
350°
050°
Altimeter
30.08 in
Visibility
10 SM
Temperature
09° C
48° F
Dewpoint
02° C
36° F
Humidity
62%
Sky Condition
Overcast @ 3,500 ft
VFR

METAR KSJX 252049Z AUTO 02011G15KT 350V050 10SM OVC035 09/02 A3008 RMK AO2 T00900021

FAA Disclaimer: The data displayed is for advisory purposes only and is not to be used for flight planning or operations.